createdAt,value
2018-02-01T00:02:18.782Z,95059.92
2018-02-01T00:04:46.274Z,95039.02
2018-02-01T00:07:13.683Z,95042.39
2018-02-01T00:09:41.015Z,95059.20
2018-02-01T00:12:08.408Z,95033.50
2018-02-01T00:14:35.777Z,95052.80
2018-02-01T00:17:03.174Z,95051.86
2018-02-01T00:19:30.523Z,95037.52
2018-02-01T00:21:57.897Z,95035.98
2018-02-01T00:24:25.278Z,95036.92
2018-02-01T00:26:52.721Z,95048.45
2018-02-01T00:29:20.079Z,95039.39
2018-02-01T00:31:47.583Z,95046.56
2018-02-01T00:34:14.941Z,95039.61
2018-02-01T00:36:42.410Z,95043.36
2018-02-01T00:39:09.781Z,95033.55
2018-02-01T00:41:37.145Z,95025.66
2018-02-01T00:44:04.546Z,95040.92
2018-02-01T00:46:31.897Z,95043.19
2018-02-01T00:48:59.293Z,95037.91
2018-02-01T00:51:26.683Z,95031.50
2018-02-01T00:53:54.026Z,95040.38
2018-02-01T00:56:21.418Z,94995.31
2018-02-01T00:58:48.781Z,95031.49
2018-02-01T01:01:16.194Z,95016.47
2018-02-01T01:03:43.552Z,95034.91
2018-02-01T01:06:10.959Z,95021.12
2018-02-01T01:08:38.352Z,95043.20
2018-02-01T01:11:05.761Z,95023.94
2018-02-01T01:13:33.174Z,95024.57
2018-02-01T01:16:00.563Z,95015.28
2018-02-01T01:18:27.921Z,95018.90
2018-02-01T01:20:55.299Z,95018.69
2018-02-01T01:23:22.744Z,95017.38
2018-02-01T01:25:50.241Z,94987.02
2018-02-01T01:28:17.584Z,95025.89
2018-02-01T01:30:45.014Z,95001.36
2018-02-01T01:33:12.356Z,94997.75
2018-02-01T01:35:39.703Z,95004.91
2018-02-01T01:38:07.143Z,95017.19
2018-02-01T01:40:34.555Z,94999.83
2018-02-01T01:43:01.929Z,94998.33
2018-02-01T01:45:29.378Z,94995.69
2018-02-01T01:47:56.744Z,94997.19
2018-02-01T01:50:24.134Z,95006.65
2018-02-01T01:52:51.555Z,95005.50
2018-02-01T01:55:18.890Z,94996.59
2018-02-01T01:57:46.352Z,94981.91
2018-02-01T02:00:13.750Z,94979.27
2018-02-01T02:02:41.089Z,94998.65
2018-02-01T02:05:08.466Z,94991.17
2018-02-01T02:07:35.822Z,94988.55
2018-02-01T02:10:03.259Z,94970.46
2018-02-01T02:12:30.650Z,94989.75
2018-02-01T02:14:58.065Z,94992.34
2018-02-01T02:17:25.529Z,94978.62
2018-02-01T02:19:52.938Z,94980.88
2018-02-01T02:22:20.452Z,94985.20
2018-02-01T02:24:47.949Z,94980.32
2018-02-01T02:27:15.435Z,94964.27
2018-02-01T02:29:42.872Z,94983.70
2018-02-01T02:32:10.270Z,94968.41
2018-02-01T02:34:37.678Z,94970.99
2018-02-01T02:37:05.093Z,94963.30
2018-02-01T02:39:32.547Z,94982.33
2018-02-01T02:41:59.905Z,94976.10
2018-02-01T02:44:27.338Z,94977.05
2018-02-01T02:46:54.751Z,94969.11
2018-02-01T02:49:22.130Z,94967.23
2018-02-01T02:51:49.532Z,94962.30
2018-02-01T02:54:17.204Z,94961.91
2018-02-01T02:56:44.702Z,94969.87
2018-02-01T02:59:12.135Z,94967.00
2018-02-01T03:01:39.636Z,94965.12
2018-02-01T03:04:07.021Z,94968.91
2018-02-01T03:06:34.462Z,94965.12
2018-02-01T03:09:01.822Z,94959.48
2018-02-01T03:11:29.254Z,94957.01
2018-02-01T03:13:56.961Z,94959.44
2018-02-01T03:16:24.543Z,94948.52
2018-02-01T03:18:52.018Z,94950.95
2018-02-01T03:21:19.599Z,94950.19
2018-02-01T03:23:46.992Z,94941.28
2018-02-01T03:26:14.422Z,94941.49
2018-02-01T03:28:41.853Z,94925.84
2018-02-01T03:31:09.289Z,94939.61
2018-02-01T03:33:36.649Z,94931.47
2018-02-01T03:36:04.026Z,94913.22
2018-02-01T03:38:31.378Z,94933.76
2018-02-01T03:40:58.800Z,94931.67
2018-02-01T03:43:26.241Z,94932.26
2018-02-01T03:45:53.585Z,94922.81
2018-02-01T03:48:20.977Z,94915.97
2018-02-01T03:50:48.379Z,94922.24
2018-02-01T03:53:15.768Z,94920.55
2018-02-01T03:55:43.202Z,94931.11
2018-02-01T03:58:10.618Z,94920.92
2018-02-01T04:00:37.953Z,94910.13
2018-02-01T04:03:05.334Z,94922.20
2018-02-01T04:05:32.699Z,94909.59
2018-02-01T04:08:00.077Z,94923.70
2018-02-01T04:10:27.471Z,94929.33
2018-02-01T04:12:54.826Z,94912.55
2018-02-01T04:15:22.209Z,94917.97
2018-02-01T04:17:49.600Z,94909.48
2018-02-01T04:20:16.981Z,94926.63
2018-02-01T04:22:44.411Z,94922.22
2018-02-01T04:25:11.791Z,94905.79
2018-02-01T04:27:39.185Z,94923.25
2018-02-01T04:30:06.574Z,94918.34
2018-02-01T04:32:33.913Z,94921.03
2018-02-01T04:35:01.306Z,94918.18
2018-02-01T04:37:28.734Z,94922.25
2018-02-01T04:39:56.166Z,94887.05
2018-02-01T04:42:23.551Z,94904.31
2018-02-01T04:44:50.944Z,94908.78
2018-02-01T04:47:18.373Z,94913.52
2018-02-01T04:49:45.811Z,94906.97
2018-02-01T04:52:13.282Z,94921.00
2018-02-01T04:54:40.677Z,94918.22
2018-02-01T04:57:08.092Z,94911.81
2018-02-01T04:59:35.525Z,94910.34
2018-02-01T05:02:03.016Z,94922.88
2018-02-01T05:04:30.426Z,94930.22
2018-02-01T05:06:57.915Z,94938.55
2018-02-01T05:09:25.313Z,94942.72
2018-02-01T05:11:52.774Z,94931.00
2018-02-01T05:14:20.169Z,94938.11
2018-02-01T05:16:47.563Z,94917.37
2018-02-01T05:19:15.008Z,94932.64
2018-02-01T05:21:42.430Z,94936.63
2018-02-01T05:24:09.865Z,94946.97
2018-02-01T05:26:37.267Z,94927.03
2018-02-01T05:29:04.723Z,94923.59
2018-02-01T05:31:32.153Z,94916.98
2018-02-01T05:33:59.586Z,94940.89
2018-02-01T05:36:26.975Z,94948.25
2018-02-01T05:38:54.487Z,94931.32
2018-02-01T05:41:21.923Z,94941.06
2018-02-01T05:43:49.313Z,94940.13
2018-02-01T05:46:16.771Z,94945.25
2018-02-01T05:48:44.228Z,94952.36
2018-02-01T05:51:11.672Z,94941.30
2018-02-01T05:53:39.084Z,94949.66
2018-02-01T05:56:06.569Z,94961.63
2018-02-01T05:58:33.938Z,94952.80
2018-02-01T06:01:01.368Z,94957.13
2018-02-01T06:03:28.767Z,94968.33
2018-02-01T06:05:56.262Z,94948.77
2018-02-01T06:08:23.642Z,94976.25
2018-02-01T06:10:51.014Z,94961.41
2018-02-01T06:13:18.422Z,94972.28
2018-02-01T06:15:45.803Z,94953.89
2018-02-01T06:18:13.263Z,94974.30
2018-02-01T06:20:40.695Z,94985.92
2018-02-01T06:23:08.088Z,94983.75
2018-02-01T06:25:35.526Z,94980.64
2018-02-01T06:28:03.012Z,94979.73
2018-02-01T06:30:30.481Z,94970.28
2018-02-01T06:32:57.879Z,94984.23
2018-02-01T06:35:25.408Z,94992.09
2018-02-01T06:37:53.084Z,94975.45
2018-02-01T06:40:21.637Z,94986.73
2018-02-01T06:42:49.073Z,94995.89
2018-02-01T06:45:16.570Z,94964.30
2018-02-01T06:47:44.048Z,94982.81
2018-02-01T06:50:11.695Z,94975.88
2018-02-01T06:52:39.120Z,94979.35
2018-02-01T06:55:06.965Z,94979.48
2018-02-01T06:57:34.506Z,94978.53
2018-02-01T07:00:02.219Z,94996.95
2018-02-01T07:02:29.654Z,94986.34
2018-02-01T07:04:57.072Z,94991.84
2018-02-01T07:07:24.789Z,94987.21
2018-02-01T07:09:52.597Z,94980.83
2018-02-01T07:12:20.324Z,94994.31
2018-02-01T07:14:47.832Z,94998.70
2018-02-01T07:17:23.979Z,94995.89
2018-02-01T07:19:51.463Z,95001.00
2018-02-01T07:22:19.010Z,94999.42
2018-02-01T07:24:47.256Z,94994.82
2018-02-01T07:27:14.796Z,94990.05
2018-02-01T07:29:42.675Z,94998.97
2018-02-01T07:32:11.690Z,95012.75
2018-02-01T07:34:41.476Z,95005.25
2018-02-01T07:37:09.195Z,95023.05
2018-02-01T07:39:36.719Z,95010.34
2018-02-01T07:42:05.505Z,95017.73
2018-02-01T07:44:33.411Z,95025.58
2018-02-01T07:47:00.857Z,94991.23
2018-02-01T07:49:28.226Z,94986.17
2018-02-01T07:51:55.612Z,95010.12
2018-02-01T07:54:23.072Z,95012.73
2018-02-01T07:56:50.548Z,94990.81
2018-02-01T07:59:17.915Z,95004.35
2018-02-01T08:01:46.282Z,94988.43
2018-02-01T08:04:13.810Z,94982.14
2018-02-01T08:06:41.254Z,94993.95
2018-02-01T08:09:08.701Z,94996.33
2018-02-01T08:11:36.105Z,94984.50
2018-02-01T08:14:03.542Z,94977.87
2018-02-01T08:16:30.978Z,94981.83
2018-02-01T08:18:58.395Z,95003.43
2018-02-01T08:21:25.899Z,95006.39
2018-02-01T08:23:53.347Z,94994.39
2018-02-01T08:26:20.956Z,94970.52
2018-02-01T08:28:48.500Z,94978.98
2018-02-01T08:31:16.027Z,94989.73
2018-02-01T08:33:43.470Z,94985.87
2018-02-01T08:36:10.950Z,94948.69
2018-02-01T08:38:38.398Z,94979.52
2018-02-01T08:41:05.911Z,94974.42
2018-02-01T08:43:33.366Z,94973.77
2018-02-01T08:46:00.812Z,94959.79
2018-02-01T08:48:28.253Z,94984.03
2018-02-01T08:50:55.660Z,94982.34
2018-02-01T08:53:23.078Z,94953.44
2018-02-01T08:55:50.504Z,94995.86
2018-02-01T08:58:17.998Z,94968.31
2018-02-01T09:00:45.454Z,94930.27
2018-02-01T09:03:12.964Z,94984.83
2018-02-01T09:05:40.451Z,94973.77
2018-02-01T09:08:07.896Z,94974.53
2018-02-01T09:10:35.410Z,94963.48
2018-02-01T09:13:02.840Z,94983.19
2018-02-01T09:15:30.296Z,94967.69
2018-02-01T09:17:57.763Z,94954.17
2018-02-01T09:20:25.202Z,94941.58
2018-02-01T09:22:52.750Z,94954.36
2018-02-01T09:25:20.775Z,94943.20
2018-02-01T09:27:48.365Z,94955.87
2018-02-01T09:30:15.790Z,94927.97
2018-02-01T09:32:43.600Z,94902.70
2018-02-01T09:35:11.028Z,94933.59
2018-02-01T09:37:38.582Z,94939.26
2018-02-01T09:40:06.024Z,94928.20
2018-02-01T09:42:33.547Z,94930.13
2018-02-01T09:45:01.049Z,94926.22
2018-02-01T09:47:28.503Z,94904.74
2018-02-01T09:49:56.091Z,94927.20
2018-02-01T09:52:23.583Z,94925.77
2018-02-01T09:54:51.124Z,94920.02
2018-02-01T09:57:18.725Z,94927.08
2018-02-01T09:59:46.678Z,94907.38
2018-02-01T10:02:15.850Z,94907.40
2018-02-01T10:04:45.328Z,94906.27
2018-02-01T10:07:12.941Z,94895.96
2018-02-01T10:09:40.655Z,94914.89
2018-02-01T10:12:08.095Z,94881.00
2018-02-01T10:14:35.522Z,94895.61
2018-02-01T10:17:03.094Z,94881.87
2018-02-01T10:19:30.535Z,94891.66
2018-02-01T10:21:57.962Z,94860.17
2018-02-01T10:24:25.453Z,94877.72
2018-02-01T10:26:52.988Z,94859.72
2018-02-01T10:29:20.397Z,94868.97
2018-02-01T10:31:47.832Z,94875.00
2018-02-01T10:34:15.274Z,94869.95
2018-02-01T10:36:42.666Z,94800.58
2018-02-01T10:39:10.146Z,94828.33
2018-02-01T10:41:37.584Z,94827.03
2018-02-01T10:44:05.034Z,94842.97
2018-02-01T10:46:33.219Z,94848.37
2018-02-01T10:49:00.696Z,94794.41
2018-02-01T10:51:28.696Z,94802.52
2018-02-01T10:53:56.216Z,94831.69
2018-02-01T10:56:23.737Z,94821.20
2018-02-01T10:58:51.315Z,94812.33
2018-02-01T11:01:20.532Z,94775.66
2018-02-01T11:03:48.098Z,94808.78
2018-02-01T11:06:15.573Z,94821.04
2018-02-01T11:08:43.219Z,94807.66
2018-02-01T11:11:10.890Z,94789.91
2018-02-01T11:13:38.492Z,94780.63
2018-02-01T11:16:05.930Z,94775.71
2018-02-01T11:18:33.659Z,94791.75
2018-02-01T11:21:01.130Z,94784.92
2018-02-01T11:23:28.648Z,94759.03
2018-02-01T11:25:56.148Z,94769.54
2018-02-01T11:28:23.685Z,94786.86
2018-02-01T11:30:52.194Z,94781.16
2018-02-01T11:33:19.854Z,94756.63
2018-02-01T11:35:47.314Z,94765.13
2018-02-01T11:38:14.748Z,94746.12
2018-02-01T11:40:42.282Z,94761.17
2018-02-01T11:43:09.749Z,94750.66
2018-02-01T11:45:37.221Z,94763.81
2018-02-01T11:48:04.616Z,94761.91
2018-02-01T11:50:32.066Z,94751.76
2018-02-01T11:52:59.541Z,94754.91
2018-02-01T11:55:27.040Z,94734.78
2018-02-01T11:57:54.454Z,94723.36
2018-02-01T12:00:21.860Z,94710.16
2018-02-01T12:02:49.400Z,94713.50
2018-02-01T12:05:16.905Z,94716.33
2018-02-01T12:07:44.415Z,94700.69
2018-02-01T12:10:11.945Z,94710.09
2018-02-01T12:12:39.512Z,94706.64
2018-02-01T12:15:06.956Z,94692.18
2018-02-01T12:17:34.354Z,94713.41
2018-02-01T12:20:01.806Z,94670.58
2018-02-01T12:22:29.202Z,94717.22
2018-02-01T12:24:56.665Z,94684.11
2018-02-01T12:27:24.235Z,94705.03
2018-02-01T12:29:51.665Z,94701.34
2018-02-01T12:32:19.099Z,94693.44
2018-02-01T12:34:46.485Z,94701.81
2018-02-01T12:37:13.941Z,94690.39
2018-02-01T12:39:41.362Z,94681.84
2018-02-01T12:42:09.359Z,94679.05
2018-02-01T12:44:36.781Z,94671.78
2018-02-01T12:47:04.215Z,94673.41
2018-02-01T12:49:31.582Z,94678.66
2018-02-01T12:51:59.120Z,94646.38
2018-02-01T12:54:26.578Z,94639.38
2018-02-01T12:56:54.035Z,94664.89
2018-02-01T12:59:21.448Z,94646.00
2018-02-01T13:01:48.838Z,94622.20
2018-02-01T13:04:16.389Z,94636.99
2018-02-01T13:06:43.888Z,94665.94
2018-02-01T13:09:11.302Z,94671.38
2018-02-01T13:11:38.932Z,94635.13
2018-02-01T13:14:06.765Z,94681.00
2018-02-01T13:16:34.343Z,94664.38
2018-02-01T13:19:01.805Z,94657.30
2018-02-01T13:21:29.232Z,94653.01
2018-02-01T13:23:58.100Z,94623.72
2018-02-01T13:26:25.591Z,94662.51
2018-02-01T13:28:53.065Z,94660.99
2018-02-01T13:31:20.488Z,94658.09
2018-02-01T13:33:47.926Z,94633.95
2018-02-01T13:36:15.413Z,94641.37
2018-02-01T13:38:42.805Z,94641.44
2018-02-01T13:41:10.277Z,94633.34
2018-02-01T13:43:37.686Z,94633.20
2018-02-01T13:46:05.162Z,94631.14
2018-02-01T13:48:32.686Z,94638.86
2018-02-01T13:51:00.095Z,94648.94
2018-02-01T13:53:27.555Z,94602.58
2018-02-01T13:55:55.054Z,94607.79
2018-02-01T13:58:22.580Z,94636.16
2018-02-01T14:00:50.035Z,94614.63
2018-02-01T14:03:17.461Z,94645.13
2018-02-01T14:05:44.851Z,94633.38
2018-02-01T14:08:12.428Z,94609.38
2018-02-01T14:10:39.902Z,94620.19
2018-02-01T14:13:07.452Z,94607.42
2018-02-01T14:15:34.841Z,94615.97
2018-02-01T14:18:02.481Z,94614.48
2018-02-01T14:20:29.924Z,94619.23
2018-02-01T14:22:57.323Z,94616.69
2018-02-01T14:25:24.786Z,94621.09
2018-02-01T14:27:52.255Z,94616.03
2018-02-01T14:30:19.876Z,94571.30
2018-02-01T14:32:47.337Z,94600.25
2018-02-01T14:35:14.871Z,94603.41
2018-02-01T14:37:42.295Z,94597.14
2018-02-01T14:40:09.769Z,94612.13
2018-02-01T14:42:37.274Z,94619.68
2018-02-01T14:45:05.108Z,94569.31
2018-02-01T14:47:32.511Z,94592.73
2018-02-01T14:50:00.200Z,94587.97
2018-02-01T14:52:47.860Z,94602.03
2018-02-01T14:55:15.304Z,94607.09
2018-02-01T14:57:42.748Z,94605.34
2018-02-01T15:00:10.197Z,94535.09
2018-02-01T15:02:37.682Z,94589.53
2018-02-01T15:05:05.134Z,94565.21
2018-02-01T15:07:32.567Z,94594.73
2018-02-01T15:09:59.963Z,94602.58
2018-02-01T15:12:28.475Z,94584.91
2018-02-01T15:14:55.890Z,94579.73
2018-02-01T15:17:23.365Z,94598.62
2018-02-01T15:19:50.816Z,94559.36
2018-02-01T15:22:18.283Z,94600.34
2018-02-01T15:24:45.712Z,94612.42
2018-02-01T15:27:13.141Z,94596.73
2018-02-01T15:29:40.538Z,94563.24
2018-02-01T15:32:07.974Z,94593.08
2018-02-01T15:34:35.364Z,94588.16
2018-02-01T15:37:02.805Z,94579.39
2018-02-01T15:39:30.198Z,94601.70
2018-02-01T15:41:57.619Z,94592.20
2018-02-01T15:44:26.073Z,94605.02
2018-02-01T15:46:53.519Z,94604.64
2018-02-01T15:49:20.941Z,94588.75
2018-02-01T15:51:48.350Z,94576.63
2018-02-01T15:54:15.793Z,94575.90
2018-02-01T15:56:43.269Z,94551.37
2018-02-01T15:59:10.786Z,94564.47
2018-02-01T16:01:38.183Z,94574.27
2018-02-01T16:04:05.668Z,94591.22
2018-02-01T16:06:33.035Z,94551.43
2018-02-01T16:09:00.420Z,94596.31
2018-02-01T16:11:27.885Z,94591.45
2018-02-01T16:13:55.408Z,94602.66
2018-02-01T16:16:22.848Z,94585.97
2018-02-01T16:18:50.380Z,94616.84
2018-02-01T16:21:17.807Z,94609.39
2018-02-01T16:23:45.238Z,94584.64
2018-02-01T16:26:12.757Z,94601.44
2018-02-01T16:28:40.194Z,94614.44
2018-02-01T16:31:07.584Z,94590.97
2018-02-01T16:33:35.113Z,94621.77
2018-02-01T16:36:02.590Z,94584.80
2018-02-01T16:38:30.018Z,94603.34
2018-02-01T16:40:57.459Z,94593.31
2018-02-01T16:43:24.852Z,94605.76
2018-02-01T16:45:52.286Z,94608.30
2018-02-01T16:48:19.757Z,94606.17
2018-02-01T16:50:47.143Z,94620.41
2018-02-01T16:53:14.555Z,94610.77
2018-02-01T16:55:42.008Z,94627.34
2018-02-01T16:58:09.408Z,94600.05
2018-02-01T17:00:36.788Z,94620.51
2018-02-01T17:03:04.244Z,94612.41
2018-02-01T17:05:31.663Z,94611.53
2018-02-01T17:07:59.063Z,94612.77
2018-02-01T17:10:26.430Z,94616.22
2018-02-01T17:12:53.900Z,94624.00
2018-02-01T17:15:21.340Z,94632.52
2018-02-01T17:17:48.709Z,94628.22
2018-02-01T17:20:16.123Z,94623.41
2018-02-01T17:22:43.558Z,94615.73
2018-02-01T17:25:10.939Z,94618.78
2018-02-01T17:27:38.364Z,94622.70
2018-02-01T17:30:05.819Z,94634.11
2018-02-01T17:32:33.218Z,94632.61
2018-02-01T17:35:00.622Z,94644.28
2018-02-01T17:37:27.989Z,94625.72
2018-02-01T17:39:55.450Z,94633.82
2018-02-01T17:42:22.841Z,94640.75
2018-02-01T17:44:50.297Z,94612.34
2018-02-01T17:47:17.733Z,94619.59
2018-02-01T17:49:45.120Z,94622.21
2018-02-01T17:52:12.573Z,94624.71
2018-02-01T17:54:39.971Z,94620.91
2018-02-01T17:57:07.334Z,94613.84
2018-02-01T17:59:34.783Z,94619.37
2018-02-01T18:02:02.191Z,94620.95
2018-02-01T18:04:29.602Z,94628.98
2018-02-01T18:06:57.035Z,94634.17
2018-02-01T18:09:24.467Z,94628.58
2018-02-01T18:11:51.933Z,94638.34
2018-02-01T18:14:19.322Z,94638.44
2018-02-01T18:16:46.756Z,94624.02
2018-02-01T18:19:14.196Z,94625.95
2018-02-01T18:21:41.619Z,94596.55
2018-02-01T18:24:09.044Z,94607.04
2018-02-01T18:26:36.494Z,94616.17
2018-02-01T18:29:03.937Z,94643.16
2018-02-01T18:31:31.369Z,94625.70
2018-02-01T18:33:58.749Z,94620.81
2018-02-01T18:36:26.156Z,94634.42
2018-02-01T18:38:53.568Z,94633.45
2018-02-01T18:41:20.986Z,94620.72
2018-02-01T18:43:48.425Z,94618.83
2018-02-01T18:46:15.853Z,94622.08
2018-02-01T18:48:43.278Z,94597.07
2018-02-01T18:51:10.659Z,94618.67
2018-02-01T18:53:38.094Z,94622.03
2018-02-01T18:56:05.529Z,94614.66
2018-02-01T18:58:32.993Z,94619.68
2018-02-01T19:01:00.414Z,94616.52
2018-02-01T19:03:27.779Z,94617.66
2018-02-01T19:05:55.239Z,94627.86
2018-02-01T19:08:22.686Z,94621.80
2018-02-01T19:10:50.124Z,94619.87
2018-02-01T19:13:17.518Z,94629.27
2018-02-01T19:15:44.909Z,94636.98
2018-02-01T19:18:12.304Z,94637.48
2018-02-01T19:20:39.741Z,94643.87
2018-02-01T19:23:07.229Z,94641.45
2018-02-01T19:25:34.675Z,94632.25
2018-02-01T19:28:02.087Z,94618.95
2018-02-01T19:30:29.549Z,94594.61
2018-02-01T19:32:56.953Z,94597.37
2018-02-01T19:35:24.386Z,94602.28
2018-02-01T19:37:51.844Z,94618.03
2018-02-01T19:40:19.297Z,94606.31
2018-02-01T19:42:46.715Z,94632.14
2018-02-01T19:45:14.179Z,94633.60
2018-02-01T19:47:41.572Z,94635.83
2018-02-01T19:50:09.029Z,94629.23
2018-02-01T19:52:36.472Z,94629.59
2018-02-01T19:55:03.973Z,94631.92
2018-02-01T20:00:24.261Z,94625.01
2018-02-01T20:02:51.695Z,94637.24
2018-02-01T20:05:19.176Z,94627.23
2018-02-01T20:07:46.602Z,94626.91
2018-02-01T20:10:14.026Z,94622.23
2018-02-01T20:12:41.463Z,94632.86
2018-02-01T20:15:08.913Z,94623.55
2018-02-01T20:17:36.411Z,94611.28
2018-02-01T20:20:03.803Z,94618.91
2018-02-01T20:22:31.271Z,94624.54
2018-02-01T20:24:58.654Z,94607.61
2018-02-01T20:27:26.195Z,94628.22
2018-02-01T20:29:53.645Z,94617.42
2018-02-01T20:32:21.124Z,94634.05
2018-02-01T20:34:48.518Z,94638.88
2018-02-01T20:37:16.005Z,94611.31
2018-02-01T20:39:43.462Z,94613.73
2018-02-01T20:42:10.901Z,94631.66
2018-02-01T20:44:38.363Z,94592.41
2018-02-01T20:47:05.794Z,94604.00
2018-02-01T20:49:33.232Z,94635.80
2018-02-01T20:52:00.632Z,94615.72
2018-02-01T20:54:28.076Z,94630.94
2018-02-01T20:56:55.612Z,94625.06
2018-02-01T20:59:23.053Z,94620.21
2018-02-01T21:01:50.428Z,94627.52
2018-02-01T21:04:17.875Z,94614.94
2018-02-01T21:06:45.320Z,94636.03
2018-02-01T21:09:12.755Z,94636.52
2018-02-01T21:11:40.175Z,94631.95
2018-02-01T21:14:07.903Z,94641.23
2018-02-01T21:16:35.353Z,94635.19
2018-02-01T21:19:02.725Z,94609.17
2018-02-01T21:21:30.175Z,94638.62
2018-02-01T21:23:57.605Z,94610.30
2018-02-01T21:26:25.063Z,94634.63
2018-02-01T21:28:52.495Z,94628.11
2018-02-01T21:31:19.936Z,94633.20
2018-02-01T21:33:47.358Z,94615.73
2018-02-01T21:36:14.748Z,94621.95
2018-02-01T21:38:42.168Z,94618.72
2018-02-01T21:41:09.623Z,94617.27
2018-02-01T21:43:37.002Z,94613.60
2018-02-01T21:46:04.436Z,94611.77
2018-02-01T21:48:31.814Z,94604.22
2018-02-01T21:50:59.178Z,94582.50
2018-02-01T21:53:26.585Z,94605.28
2018-02-01T21:55:53.954Z,94598.12
2018-02-01T21:58:21.361Z,94604.82
2018-02-01T22:00:48.812Z,94603.94
2018-02-01T22:03:16.242Z,94606.88
2018-02-01T22:05:43.650Z,94611.17
2018-02-01T22:08:11.014Z,94590.13
2018-02-01T22:10:38.438Z,94592.53
2018-02-01T22:13:05.793Z,94587.86
2018-02-01T22:15:33.202Z,94569.92
2018-02-01T22:18:00.577Z,94602.48
2018-02-01T22:20:27.999Z,94608.71
2018-02-01T22:22:55.363Z,94602.56
2018-02-01T22:25:22.726Z,94608.59
2018-02-01T22:27:50.180Z,94580.50
2018-02-01T22:30:17.607Z,94597.32
2018-02-01T22:32:45.026Z,94606.06
2018-02-01T22:35:12.459Z,94592.62
2018-02-01T22:37:39.870Z,94603.29
2018-02-01T22:40:07.231Z,94600.39
2018-02-01T22:42:34.627Z,94621.10
2018-02-01T22:45:01.983Z,94614.75
2018-02-01T22:47:29.386Z,94630.18
2018-02-01T22:49:56.821Z,94643.00
2018-02-01T22:52:24.231Z,94651.45
2018-02-01T22:54:51.609Z,94627.78
2018-02-01T22:57:19.049Z,94634.89
2018-02-01T22:59:46.426Z,94641.84
2018-02-01T23:02:13.794Z,94610.94
2018-02-01T23:04:41.237Z,94615.67
2018-02-01T23:07:08.603Z,94624.10
2018-02-01T23:09:35.995Z,94627.87
2018-02-01T23:12:03.370Z,94615.75
2018-02-01T23:14:30.794Z,94592.16
2018-02-01T23:16:58.199Z,94604.34
2018-02-01T23:19:25.618Z,94609.18
2018-02-01T23:21:53.026Z,94619.81
2018-02-01T23:24:20.405Z,94627.89
2018-02-01T23:26:47.844Z,94611.09
2018-02-01T23:29:15.298Z,94594.36
2018-02-01T23:31:42.793Z,94613.05
2018-02-01T23:34:10.171Z,94628.94
2018-02-01T23:36:37.574Z,94634.00
2018-02-01T23:39:05.014Z,94632.89
2018-02-01T23:41:32.407Z,94620.09
2018-02-01T23:43:59.826Z,94599.00
2018-02-01T23:46:27.238Z,94585.59
2018-02-01T23:48:54.649Z,94613.23
2018-02-01T23:51:22.018Z,94576.34
2018-02-01T23:53:49.410Z,94578.55
2018-02-01T23:56:16.801Z,94622.16
2018-02-01T23:58:44.215Z,94605.77
